createdAt,value
2023-01-22T00:01:13.952Z,26.92
2023-01-22T00:03:45.527Z,24.75
2023-01-22T00:06:16.473Z,24.77
2023-01-22T00:08:44.540Z,26.10
2023-01-22T00:11:13.310Z,26.35
2023-01-22T00:13:41.993Z,25.52
2023-01-22T00:16:13.462Z,26.25
2023-01-22T00:18:41.548Z,25.80
2023-01-22T00:21:09.613Z,24.98
2023-01-22T00:23:39.233Z,22.67
2023-01-22T00:26:11.016Z,23.63
2023-01-22T00:28:41.564Z,23.05
2023-01-22T00:31:11.289Z,22.57
2023-01-22T00:33:40.618Z,21.98
2023-01-22T00:36:10.436Z,21.33
2023-01-22T00:38:40.245Z,21.95
2023-01-22T00:41:09.665Z,21.20
2023-01-22T00:43:39.543Z,22.13
2023-01-22T00:46:08.830Z,21.67
2023-01-22T00:48:36.940Z,21.52
2023-01-22T00:51:05.181Z,20.58
2023-01-22T00:53:33.136Z,20.15
2023-01-22T00:56:03.791Z,19.20
2023-01-22T00:58:31.997Z,19.10
2023-01-22T01:01:00.789Z,19.00
2023-01-22T01:03:30.508Z,18.77
2023-01-22T01:06:00.303Z,18.83
2023-01-22T01:08:30.541Z,18.52
2023-01-22T01:10:59.997Z,18.27
2023-01-22T01:13:31.476Z,18.05
2023-01-22T01:16:04.120Z,17.77
2023-01-22T01:18:33.460Z,17.37
2023-01-22T01:21:02.083Z,17.50
2023-01-22T01:23:30.393Z,18.55
2023-01-22T01:25:58.700Z,17.73
2023-01-22T01:28:28.696Z,18.13
2023-01-22T01:31:02.511Z,18.00
2023-01-22T01:33:30.551Z,17.60
2023-01-22T01:36:03.016Z,16.73
2023-01-22T01:38:31.288Z,16.60
2023-01-22T01:40:59.251Z,17.67
2023-01-22T01:43:28.104Z,16.50
2023-01-22T01:45:58.836Z,16.17
2023-01-22T01:48:31.046Z,16.75
2023-01-22T01:51:04.084Z,16.40
2023-01-22T01:53:32.817Z,15.88
2023-01-22T01:56:03.355Z,17.13
2023-01-22T01:58:34.348Z,15.98
2023-01-22T02:01:09.544Z,16.45
2023-01-22T02:03:39.225Z,16.92
2023-01-22T02:06:10.342Z,15.20
2023-01-22T02:08:38.584Z,16.50
2023-01-22T02:11:06.889Z,15.50
2023-01-22T02:13:37.132Z,16.75
2023-01-22T02:16:07.915Z,14.82
2023-01-22T02:18:35.913Z,14.63
2023-01-22T02:21:05.557Z,14.60
2023-01-22T02:23:33.546Z,14.80
2023-01-22T02:26:01.881Z,14.63
2023-01-22T02:28:29.793Z,14.35
2023-01-22T02:30:57.861Z,14.50
2023-01-22T02:33:25.873Z,14.40
2023-01-22T02:35:53.860Z,14.03
2023-01-22T02:38:23.228Z,14.63
2023-01-22T02:40:51.293Z,14.63
2023-01-22T02:43:19.357Z,15.20
2023-01-22T02:45:47.547Z,13.68
2023-01-22T02:48:16.078Z,13.60
2023-01-22T02:50:45.091Z,14.50
2023-01-22T02:53:13.598Z,13.70
2023-01-22T02:55:45.024Z,13.20
2023-01-22T02:58:13.201Z,14.23
2023-01-22T03:00:41.218Z,13.63
2023-01-22T03:03:15.430Z,13.30
2023-01-22T03:05:49.446Z,13.07
2023-01-22T03:08:18.384Z,13.75
2023-01-22T03:10:47.962Z,13.20
2023-01-22T03:13:33.470Z,12.50
2023-01-22T03:16:22.203Z,12.98
2023-01-22T03:19:07.430Z,12.85
2023-01-22T03:21:35.375Z,13.55
2023-01-22T03:24:03.339Z,13.55
2023-01-22T03:26:32.906Z,12.93
2023-01-22T03:29:00.908Z,14.10
2023-01-22T03:31:29.266Z,14.45
2023-01-22T03:33:57.256Z,13.40
2023-01-22T03:36:25.471Z,14.80
2023-01-22T03:38:53.411Z,14.88
2023-01-22T03:41:21.343Z,14.70
2023-01-22T03:43:50.668Z,13.00
2023-01-22T03:46:21.044Z,13.65
2023-01-22T03:48:52.105Z,14.70
2023-01-22T03:51:20.576Z,13.90
2023-01-22T03:53:48.882Z,13.52
2023-01-22T03:56:19.483Z,13.38
2023-01-22T03:58:48.431Z,13.70
2023-01-22T04:01:20.556Z,12.90
2023-01-22T04:03:49.348Z,12.70
2023-01-22T04:06:17.740Z,13.80
2023-01-22T04:08:47.166Z,13.30
2023-01-22T04:11:15.766Z,13.75
2023-01-22T04:13:44.924Z,13.60
2023-01-22T04:16:14.696Z,12.50
2023-01-22T04:18:44.371Z,12.35
2023-01-22T04:21:13.003Z,14.00
2023-01-22T04:23:40.966Z,12.45
2023-01-22T04:26:08.913Z,13.60
2023-01-22T04:28:36.834Z,13.35
2023-01-22T04:31:05.203Z,12.38
2023-01-22T04:33:33.286Z,13.43
2023-01-22T04:36:02.736Z,11.77
2023-01-22T04:38:30.761Z,12.20
2023-01-22T04:40:58.708Z,12.20
2023-01-22T04:43:26.683Z,12.02
2023-01-22T04:45:54.654Z,12.13
2023-01-22T04:48:22.662Z,12.40
2023-01-22T04:50:50.660Z,11.60
2023-01-22T04:53:19.990Z,12.77
2023-01-22T04:55:47.981Z,11.40
2023-01-22T04:58:16.003Z,11.32
2023-01-22T05:00:44.144Z,11.63
2023-01-22T05:03:12.813Z,11.35
2023-01-22T05:05:40.875Z,10.77
2023-01-22T05:08:08.866Z,11.50
2023-01-22T05:10:38.260Z,11.40
2023-01-22T05:13:07.708Z,12.20
2023-01-22T05:15:36.018Z,11.85
2023-01-22T05:18:03.945Z,11.50
2023-01-22T05:20:31.850Z,11.18
2023-01-22T05:22:59.855Z,12.07
2023-01-22T05:25:27.821Z,11.52
2023-01-22T05:27:57.145Z,10.83
2023-01-22T05:30:25.173Z,11.15
2023-01-22T05:32:56.732Z,10.85
2023-01-22T05:35:24.858Z,10.30
2023-01-22T05:37:52.808Z,11.32
2023-01-22T05:40:20.992Z,10.40
2023-01-22T05:42:49.108Z,11.15
2023-01-22T05:45:18.540Z,11.15
2023-01-22T05:47:46.585Z,9.80
2023-01-22T05:50:14.548Z,11.18
2023-01-22T05:52:42.554Z,10.52
2023-01-22T05:55:10.798Z,10.75
2023-01-22T05:57:38.759Z,10.30
2023-01-22T06:00:08.497Z,10.13
2023-01-22T06:02:37.817Z,10.00
2023-01-22T06:05:06.739Z,10.20
2023-01-22T06:07:34.722Z,10.32
2023-01-22T06:10:03.057Z,10.38
2023-01-22T06:12:31.121Z,10.07
2023-01-22T06:14:59.052Z,9.68
2023-01-22T06:17:26.996Z,11.25
2023-01-22T06:19:56.295Z,10.18
2023-01-22T06:22:24.196Z,10.20
2023-01-22T06:24:52.164Z,10.35
2023-01-22T06:27:20.700Z,10.15
2023-01-22T06:29:48.659Z,10.98
2023-01-22T06:32:16.594Z,10.27
2023-01-22T06:34:44.696Z,10.85
2023-01-22T06:37:14.103Z,10.37
2023-01-22T06:39:42.038Z,11.50
2023-01-22T06:42:10.031Z,10.13
2023-01-22T06:44:37.961Z,10.10
2023-01-22T06:47:05.934Z,10.07
2023-01-22T06:49:33.841Z,10.73
2023-01-22T06:52:01.885Z,10.00
2023-01-22T06:54:31.948Z,10.50
2023-01-22T06:56:59.937Z,10.00
2023-01-22T06:59:27.987Z,10.70
2023-01-22T07:01:55.979Z,10.20
2023-01-22T07:04:23.968Z,10.20
2023-01-22T07:06:51.893Z,10.75
2023-01-22T07:09:19.839Z,10.60
2023-01-22T07:11:49.386Z,9.73
2023-01-22T07:14:28.827Z,10.00
2023-01-22T07:17:03.887Z,10.70
2023-01-22T07:19:31.896Z,9.85
2023-01-22T07:21:59.926Z,9.67
2023-01-22T07:24:27.944Z,9.73
2023-01-22T07:26:57.194Z,9.55
2023-01-22T07:29:25.180Z,9.70
2023-01-22T07:31:53.135Z,9.20
2023-01-22T07:34:21.210Z,9.30
2023-01-22T07:36:49.178Z,9.95
2023-01-22T07:39:17.218Z,9.23
2023-01-22T07:41:45.185Z,9.90
2023-01-22T07:44:15.059Z,9.48
2023-01-22T07:46:43.040Z,9.05
2023-01-22T07:49:12.358Z,9.27
2023-01-22T07:51:40.394Z,10.63
2023-01-22T07:54:08.342Z,9.18
2023-01-22T07:56:36.270Z,8.02
2023-01-22T07:59:04.192Z,9.30
2023-01-22T08:01:33.505Z,8.60
2023-01-22T08:04:01.510Z,8.82
2023-01-22T08:06:29.530Z,8.95
2023-01-22T08:08:59.074Z,9.13
2023-01-22T08:11:27.256Z,8.93
2023-01-22T08:13:55.536Z,8.50
2023-01-22T08:16:23.609Z,9.30
2023-01-22T08:18:52.948Z,8.20
2023-01-22T08:21:20.956Z,9.15
2023-01-22T08:23:49.465Z,10.00
2023-01-22T08:26:17.568Z,10.15
2023-01-22T08:28:45.627Z,9.20
2023-01-22T08:31:26.422Z,8.95
2023-01-22T08:33:58.835Z,9.90
2023-01-22T08:36:26.997Z,9.18
2023-01-22T08:38:55.039Z,9.27
2023-01-22T08:41:23.321Z,9.38
2023-01-22T08:43:52.822Z,8.82
2023-01-22T08:46:20.823Z,9.65
2023-01-22T08:48:50.150Z,9.03
2023-01-22T08:51:19.627Z,9.73
2023-01-22T08:53:47.628Z,9.60
2023-01-22T08:56:15.641Z,10.07
2023-01-22T08:58:43.721Z,10.10
2023-01-22T09:01:17.030Z,10.07
2023-01-22T09:03:45.059Z,9.97
2023-01-22T09:06:13.645Z,10.50
2023-01-22T09:08:42.930Z,10.27
2023-01-22T09:11:10.928Z,9.90
2023-01-22T09:13:38.858Z,10.95
2023-01-22T09:16:10.862Z,10.25
2023-01-22T09:18:39.102Z,10.20
2023-01-22T09:21:08.140Z,10.60
2023-01-22T09:23:36.170Z,10.05
2023-01-22T09:26:05.862Z,10.85
2023-01-22T09:28:35.952Z,10.88
2023-01-22T09:31:04.240Z,10.80
2023-01-22T09:33:32.229Z,11.30
2023-01-22T09:36:09.037Z,11.20
2023-01-22T09:38:37.207Z,10.10
2023-01-22T09:41:17.177Z,10.07
2023-01-22T09:43:51.707Z,10.38
2023-01-22T09:46:25.179Z,12.82
2023-01-22T09:48:57.836Z,11.30
2023-01-22T09:51:25.907Z,10.88
2023-01-22T09:53:57.909Z,10.20
2023-01-22T09:56:34.334Z,10.43
2023-01-22T09:59:05.519Z,10.40
2023-01-22T10:01:34.707Z,11.18
2023-01-22T10:04:06.274Z,10.60
2023-01-22T10:06:34.721Z,11.30
2023-01-22T10:09:12.989Z,10.43
2023-01-22T10:11:43.911Z,11.35
2023-01-22T10:14:20.936Z,10.15
2023-01-22T10:16:49.435Z,11.45
2023-01-22T10:19:21.277Z,9.98
2023-01-22T10:21:52.955Z,10.70
2023-01-22T10:24:20.935Z,10.33
2023-01-22T10:26:54.293Z,11.40
2023-01-22T10:29:27.159Z,10.75
2023-01-22T10:31:57.248Z,10.43
2023-01-22T10:34:30.878Z,10.68
2023-01-22T10:37:02.855Z,11.30
2023-01-22T10:39:40.218Z,10.15
2023-01-22T10:42:17.649Z,8.93
2023-01-22T10:44:46.175Z,9.30
2023-01-22T10:47:20.878Z,8.60
2023-01-22T10:49:49.542Z,8.88
2023-01-22T10:52:23.858Z,8.20
2023-01-22T10:54:56.238Z,9.35
2023-01-22T10:57:28.644Z,8.77
2023-01-22T11:00:06.361Z,9.20
2023-01-22T11:02:37.029Z,8.40
2023-01-22T11:05:18.977Z,9.20
2023-01-22T11:07:49.445Z,8.25
2023-01-22T11:10:20.989Z,8.77
2023-01-22T11:12:54.831Z,8.80
2023-01-22T11:15:31.485Z,8.10
2023-01-22T11:18:02.225Z,8.60
2023-01-22T11:20:37.775Z,8.43
2023-01-22T11:23:28.612Z,8.30
2023-01-22T11:26:04.283Z,8.35
2023-01-22T11:28:47.242Z,8.70
2023-01-22T11:31:27.373Z,8.13
2023-01-22T11:34:21.886Z,8.35
2023-01-22T11:36:55.783Z,8.77
2023-01-22T11:39:41.890Z,8.23
2023-01-22T11:42:24.760Z,8.90
2023-01-22T11:45:06.198Z,9.07
2023-01-22T11:47:58.581Z,7.85
2023-01-22T11:50:31.307Z,8.30
2023-01-22T11:53:14.321Z,8.60
2023-01-22T11:55:55.741Z,8.80
2023-01-22T11:58:32.447Z,8.23
2023-01-22T12:01:24.000Z,8.10
2023-01-22T12:04:22.682Z,8.30
2023-01-22T12:07:14.202Z,8.85
2023-01-22T12:09:48.936Z,8.63
2023-01-22T12:12:29.510Z,8.75
2023-01-22T12:15:13.099Z,8.40
2023-01-22T12:17:55.412Z,9.80
2023-01-22T12:20:45.656Z,8.90
2023-01-22T12:23:20.242Z,8.40
2023-01-22T12:25:52.020Z,9.23
2023-01-22T12:28:25.675Z,8.88
2023-01-22T12:31:01.164Z,7.82
2023-01-22T12:33:34.356Z,8.20
2023-01-22T12:36:05.459Z,8.55
2023-01-22T12:38:43.520Z,8.93
2023-01-22T12:41:26.054Z,8.50
2023-01-22T12:43:56.292Z,8.35
2023-01-22T12:46:32.294Z,8.05
2023-01-22T12:49:06.947Z,9.00
2023-01-22T12:51:41.325Z,8.07
2023-01-22T12:54:20.911Z,7.93
2023-01-22T12:56:49.999Z,8.75
2023-01-22T12:59:43.228Z,9.55
2023-01-22T13:02:39.143Z,8.35
2023-01-22T13:05:23.891Z,7.80
2023-01-22T13:08:02.336Z,8.23
2023-01-22T13:10:31.801Z,7.70
2023-01-22T13:13:03.091Z,7.63
2023-01-22T13:15:33.960Z,7.80
2023-01-22T13:18:08.013Z,8.48
2023-01-22T13:20:47.860Z,7.65
2023-01-22T13:23:16.853Z,7.90
2023-01-22T13:25:44.847Z,8.77
2023-01-22T13:28:18.727Z,8.65
2023-01-22T13:30:57.136Z,8.55
2023-01-22T13:33:25.373Z,8.32
2023-01-22T13:35:55.206Z,8.50
2023-01-22T13:38:25.293Z,7.93
2023-01-22T13:40:58.160Z,8.80
2023-01-22T13:43:26.877Z,8.43
2023-01-22T13:45:56.607Z,8.07
2023-01-22T13:48:26.919Z,8.48
2023-01-22T13:50:58.678Z,8.40
2023-01-22T13:53:30.916Z,8.80
2023-01-22T13:56:00.129Z,8.40
2023-01-22T13:58:47.928Z,8.60
2023-01-22T14:01:28.671Z,8.98
2023-01-22T14:04:01.391Z,9.00
2023-01-22T14:06:31.624Z,8.77
2023-01-22T14:08:59.749Z,9.90
2023-01-22T14:11:38.449Z,9.27
2023-01-22T14:14:16.344Z,9.50
2023-01-22T14:16:44.577Z,9.43
2023-01-22T14:19:13.240Z,8.73
2023-01-22T14:21:42.986Z,9.73
2023-01-22T14:24:11.145Z,9.20
2023-01-22T14:26:41.093Z,9.43
2023-01-22T14:29:09.343Z,9.70
2023-01-22T14:31:37.464Z,10.40
2023-01-22T14:34:05.513Z,9.30
2023-01-22T14:36:33.528Z,9.32
2023-01-22T14:39:03.227Z,10.18
2023-01-22T14:41:31.891Z,10.13
2023-01-22T14:43:59.852Z,10.20
2023-01-22T14:46:27.863Z,11.27
2023-01-22T14:48:55.870Z,10.07
2023-01-22T14:51:23.880Z,10.95
2023-01-22T14:53:51.924Z,10.77
2023-01-22T14:56:21.330Z,10.70
2023-01-22T14:58:50.209Z,10.90
2023-01-22T15:01:20.641Z,11.98
2023-01-22T15:03:49.449Z,10.55
2023-01-22T15:06:17.395Z,11.50
2023-01-22T15:08:45.391Z,11.68
2023-01-22T15:11:13.392Z,12.00
2023-01-22T15:13:42.767Z,12.30
2023-01-22T15:16:12.097Z,12.10
2023-01-22T15:18:40.314Z,11.93
2023-01-22T15:21:08.928Z,12.73
2023-01-22T15:23:36.952Z,11.65
2023-01-22T15:26:07.943Z,11.57
2023-01-22T15:28:36.042Z,11.90
2023-01-22T15:31:07.928Z,12.55
2023-01-22T15:33:36.719Z,11.52
2023-01-22T15:36:05.626Z,11.57
2023-01-22T15:38:33.578Z,11.20
2023-01-22T15:41:07.125Z,11.10
2023-01-22T15:43:35.225Z,10.75
2023-01-22T15:46:03.199Z,10.77
2023-01-22T15:48:32.581Z,10.60
2023-01-22T15:51:08.079Z,10.20
2023-01-22T15:53:36.139Z,11.30
2023-01-22T15:56:04.641Z,10.75
2023-01-22T15:58:33.076Z,10.02
2023-01-22T16:01:01.214Z,10.95
2023-01-22T16:03:29.318Z,11.40
2023-01-22T16:06:08.767Z,10.52
2023-01-22T16:08:36.903Z,12.10
2023-01-22T16:11:05.386Z,11.30
2023-01-22T16:13:33.790Z,11.35
2023-01-22T16:16:03.333Z,11.25
2023-01-22T16:18:33.630Z,11.95
2023-01-22T16:21:03.755Z,13.30
2023-01-22T16:23:32.665Z,11.70
2023-01-22T16:26:02.216Z,11.97
2023-01-22T16:28:30.198Z,12.57
2023-01-22T16:31:02.781Z,14.00
2023-01-22T16:33:32.804Z,13.90
2023-01-22T16:36:01.499Z,13.20
2023-01-22T16:38:31.513Z,13.73
2023-01-22T16:41:24.067Z,13.90
2023-01-22T16:43:54.822Z,13.13
2023-01-22T16:46:24.542Z,12.60
2023-01-22T16:48:57.101Z,13.50
2023-01-22T16:51:26.839Z,13.65
2023-01-22T16:53:56.660Z,13.73
2023-01-22T16:56:24.587Z,12.70
2023-01-22T16:58:52.510Z,14.00
2023-01-22T17:01:20.708Z,14.80
2023-01-22T17:03:48.791Z,14.43
2023-01-22T17:06:26.390Z,14.93
2023-01-22T17:08:56.122Z,13.25
2023-01-22T17:11:24.356Z,15.50
2023-01-22T17:13:52.615Z,14.85
2023-01-22T17:16:21.478Z,14.70
2023-01-22T17:18:49.456Z,15.20
2023-01-22T17:21:19.421Z,14.27
2023-01-22T17:23:47.383Z,15.40
2023-01-22T17:26:18.401Z,16.27
2023-01-22T17:28:46.614Z,15.73
2023-01-22T17:31:16.442Z,16.30
2023-01-22T17:33:45.261Z,16.50
2023-01-22T17:36:14.794Z,15.80
2023-01-22T17:38:42.958Z,15.40
2023-01-22T17:41:14.125Z,16.10
2023-01-22T17:43:43.920Z,17.20
2023-01-22T17:46:14.650Z,16.00
2023-01-22T17:48:43.372Z,16.08
2023-01-22T17:51:12.898Z,16.65
2023-01-22T17:53:42.786Z,17.08
2023-01-22T17:56:13.197Z,17.53
2023-01-22T17:58:45.003Z,20.08
2023-01-22T18:01:15.061Z,21.42
2023-01-22T18:03:43.146Z,20.73
2023-01-22T18:06:11.651Z,20.70
2023-01-22T18:08:42.217Z,22.38
2023-01-22T18:11:11.987Z,22.10
2023-01-22T18:13:40.245Z,22.90
2023-01-22T18:16:13.789Z,20.92
2023-01-22T18:18:42.681Z,19.70
2023-01-22T18:21:14.167Z,20.53
2023-01-22T18:23:42.172Z,19.52
2023-01-22T18:26:11.161Z,19.90
2023-01-22T18:28:39.393Z,17.80
2023-01-22T18:31:09.701Z,18.60
2023-01-22T18:33:39.202Z,17.85
2023-01-22T18:36:10.575Z,19.20
2023-01-22T18:38:38.927Z,18.95
2023-01-22T18:41:07.917Z,19.00
2023-01-22T18:43:35.969Z,19.20
2023-01-22T18:46:05.442Z,18.05
2023-01-22T18:48:34.770Z,17.17
2023-01-22T18:51:03.156Z,18.95
2023-01-22T18:53:32.540Z,16.70
2023-01-22T18:56:01.171Z,17.13
2023-01-22T18:58:31.043Z,17.90
2023-01-22T19:01:08.771Z,17.67
2023-01-22T19:03:38.882Z,16.35
2023-01-22T19:06:13.444Z,17.00
2023-01-22T19:08:43.203Z,18.20
2023-01-22T19:11:12.259Z,17.90
2023-01-22T19:13:40.673Z,15.82
2023-01-22T19:16:10.876Z,15.90
2023-01-22T19:18:42.387Z,16.10
2023-01-22T19:21:13.184Z,15.60
2023-01-22T19:23:41.146Z,15.43
2023-01-22T19:26:12.852Z,16.05
2023-01-22T19:28:40.909Z,16.30
2023-01-22T19:31:19.258Z,15.65
2023-01-22T19:33:50.381Z,15.68
2023-01-22T19:36:19.349Z,15.20
2023-01-22T19:38:47.342Z,16.30
2023-01-22T19:41:15.891Z,15.32
2023-01-22T19:43:44.259Z,15.75
2023-01-22T19:46:14.629Z,16.13
2023-01-22T19:48:43.053Z,16.98
2023-01-22T19:51:14.404Z,16.98
2023-01-22T19:53:43.004Z,16.38
2023-01-22T19:56:18.499Z,16.45
2023-01-22T19:58:46.723Z,16.40
2023-01-22T20:01:15.806Z,15.45
2023-01-22T20:03:44.158Z,15.90
2023-01-22T20:06:15.183Z,14.80
2023-01-22T20:08:43.904Z,16.23
2023-01-22T20:11:13.108Z,15.60
2023-01-22T20:13:41.744Z,15.65
2023-01-22T20:16:18.449Z,14.45
2023-01-22T20:18:46.792Z,15.23
2023-01-22T20:21:17.529Z,15.65
2023-01-22T20:23:46.222Z,14.77
2023-01-22T20:26:15.176Z,14.40
2023-01-22T20:28:43.401Z,14.65
2023-01-22T20:31:15.771Z,16.17
2023-01-22T20:33:43.940Z,14.45
2023-01-22T20:36:15.568Z,15.13
2023-01-22T20:38:46.085Z,14.43
2023-01-22T20:41:15.011Z,15.40
2023-01-22T20:43:44.606Z,14.07
2023-01-22T20:46:14.680Z,14.10
2023-01-22T20:48:43.725Z,16.02
2023-01-22T20:51:15.504Z,14.95
2023-01-22T20:53:45.500Z,15.25
2023-01-22T20:56:15.379Z,14.40
2023-01-22T20:58:43.379Z,15.50
2023-01-22T21:01:14.431Z,15.43
2023-01-22T21:03:42.654Z,14.38
2023-01-22T21:06:14.104Z,14.82
2023-01-22T21:08:42.813Z,14.65
2023-01-22T21:11:17.768Z,13.93
2023-01-22T21:13:45.754Z,14.13
2023-01-22T21:16:15.125Z,14.63
2023-01-22T21:18:46.165Z,14.63
2023-01-22T21:21:17.667Z,14.95
2023-01-22T21:23:47.872Z,14.88
2023-01-22T21:26:19.172Z,14.60
2023-01-22T21:28:48.318Z,14.00
2023-01-22T21:31:18.454Z,14.43
2023-01-22T21:33:47.103Z,13.88
2023-01-22T21:36:18.273Z,14.57
2023-01-22T21:38:47.221Z,13.93
2023-01-22T21:41:18.408Z,13.05
2023-01-22T21:44:05.669Z,14.73
2023-01-22T21:46:35.676Z,13.48
2023-01-22T21:49:16.169Z,14.30
2023-01-22T21:51:46.044Z,14.10
2023-01-22T21:54:17.189Z,14.55
2023-01-22T21:56:46.574Z,14.63
2023-01-22T21:59:14.723Z,14.60
2023-01-22T22:01:44.942Z,14.05
2023-01-22T22:04:15.040Z,14.38
2023-01-22T22:06:43.536Z,15.73
2023-01-22T22:09:13.773Z,15.05
2023-01-22T22:11:41.746Z,14.63
2023-01-22T22:14:12.670Z,14.30
2023-01-22T22:16:40.787Z,15.55
2023-01-22T22:19:08.909Z,15.15
2023-01-22T22:21:37.483Z,13.93
2023-01-22T22:24:05.981Z,14.20
2023-01-22T22:26:34.219Z,15.15
2023-01-22T22:29:02.175Z,15.20
2023-01-22T22:31:31.694Z,14.32
2023-01-22T22:33:59.627Z,14.43
2023-01-22T22:36:29.272Z,14.32
2023-01-22T22:38:57.415Z,15.35
2023-01-22T22:41:27.755Z,13.15
2023-01-22T22:43:56.580Z,14.73
2023-01-22T22:46:26.360Z,14.20
2023-01-22T22:48:57.467Z,14.70
2023-01-22T22:51:26.827Z,13.98
2023-01-22T22:53:56.543Z,14.27
2023-01-22T22:56:25.053Z,14.70
2023-01-22T22:58:53.352Z,14.70
2023-01-22T23:01:24.768Z,14.73
2023-01-22T23:03:53.813Z,13.90
2023-01-22T23:06:25.420Z,14.75
2023-01-22T23:08:56.562Z,14.40
2023-01-22T23:11:28.191Z,12.85
2023-01-22T23:14:01.190Z,13.63
2023-01-22T23:16:30.745Z,13.50
2023-01-22T23:19:00.701Z,13.73
2023-01-22T23:21:30.713Z,13.50
2023-01-22T23:23:58.784Z,13.23
2023-01-22T23:26:30.130Z,13.20
2023-01-22T23:29:02.076Z,13.93
2023-01-22T23:31:31.714Z,13.77
2023-01-22T23:34:01.341Z,13.40
2023-01-22T23:36:32.670Z,14.30
2023-01-22T23:39:00.647Z,12.90
2023-01-22T23:41:28.711Z,13.18
2023-01-22T23:43:56.704Z,13.55
2023-01-22T23:46:26.826Z,12.73
2023-01-22T23:48:56.317Z,13.70
2023-01-22T23:51:24.441Z,14.70
2023-01-22T23:53:54.368Z,13.40
2023-01-22T23:56:23.923Z,12.70
2023-01-22T23:58:54.241Z,13.30
